createdAt,value
2022-10-15T00:01:31.974Z,20.82
2022-10-15T00:06:24.261Z,20.81
2022-10-15T00:11:17.093Z,20.79
2022-10-15T00:16:09.563Z,20.81
2022-10-15T00:21:02.312Z,20.76
2022-10-15T00:25:55.274Z,20.75
2022-10-15T00:30:47.276Z,20.75
2022-10-15T00:35:39.871Z,20.73
2022-10-15T00:40:32.234Z,20.76
2022-10-15T00:45:24.586Z,20.77
2022-10-15T00:50:16.940Z,20.77
2022-10-15T00:55:09.277Z,20.77
2022-10-15T01:00:01.741Z,20.75
2022-10-15T01:04:54.267Z,20.75
2022-10-15T01:09:46.665Z,20.74
2022-10-15T01:14:39.109Z,20.75
2022-10-15T01:19:31.602Z,20.73
2022-10-15T01:24:23.999Z,20.71
2022-10-15T01:29:16.353Z,20.71
2022-10-15T01:34:08.856Z,20.71
2022-10-15T01:39:01.407Z,20.7
2022-10-15T01:43:53.681Z,20.71
2022-10-15T01:48:46.099Z,20.7
2022-10-15T01:53:38.659Z,20.69
2022-10-15T01:58:31.277Z,20.71
2022-10-15T02:03:24.119Z,20.68
2022-10-15T02:08:16.412Z,20.68
2022-10-15T02:13:08.725Z,20.7
2022-10-15T02:18:01.343Z,20.69
2022-10-15T02:22:53.819Z,20.68
2022-10-15T02:27:46.488Z,20.69
2022-10-15T02:32:39.171Z,20.66
2022-10-15T02:37:31.552Z,20.66
2022-10-15T02:42:24.377Z,20.68
2022-10-15T02:47:16.829Z,20.65
2022-10-15T02:52:09.273Z,20.65
2022-10-15T02:57:01.668Z,20.66
2022-10-15T03:01:54.404Z,20.63
2022-10-15T03:06:46.772Z,20.64
2022-10-15T03:11:39.293Z,20.65
2022-10-15T03:16:31.560Z,20.64
2022-10-15T03:21:24.188Z,20.64
2022-10-15T03:26:16.516Z,20.64
2022-10-15T03:31:09.051Z,20.62
2022-10-15T03:36:01.729Z,20.64
2022-10-15T03:40:54.345Z,20.64
2022-10-15T03:45:46.786Z,20.61
2022-10-15T03:50:39.207Z,20.62
2022-10-15T03:55:31.738Z,20.61
2022-10-15T04:00:24.401Z,20.6
2022-10-15T04:05:16.803Z,20.59
2022-10-15T04:10:09.006Z,20.6
2022-10-15T04:15:01.502Z,20.58
2022-10-15T04:19:53.972Z,20.55
2022-10-15T04:24:46.583Z,20.57
2022-10-15T04:29:38.999Z,20.59
2022-10-15T04:39:24.124Z,20.55
2022-10-15T04:44:16.666Z,20.56
2022-10-15T04:49:09.250Z,20.58
2022-10-15T04:54:01.744Z,20.56
2022-10-15T04:58:54.287Z,20.57
2022-10-15T05:03:46.782Z,20.56
2022-10-15T05:08:39.124Z,20.55
2022-10-15T05:13:31.229Z,20.58
2022-10-15T05:18:23.983Z,20.57
2022-10-15T05:23:16.313Z,20.58
2022-10-15T05:28:08.593Z,20.51
2022-10-15T05:33:01.325Z,20.54
2022-10-15T05:37:53.843Z,20.86
2022-10-15T05:42:46.798Z,21.03
2022-10-15T05:47:39.409Z,21.03
2022-10-15T05:52:31.464Z,21.16
2022-10-15T05:57:23.414Z,21.21
2022-10-15T06:02:16.090Z,21.29
2022-10-15T06:07:08.572Z,21.27
2022-10-15T06:12:01.313Z,21.42
2022-10-15T06:16:54.039Z,21.41
2022-10-15T06:21:46.614Z,21.47
2022-10-15T06:26:39.104Z,21.22
2022-10-15T06:31:31.669Z,21.4
2022-10-15T06:36:24.485Z,21.55
2022-10-15T06:41:16.955Z,21.55
2022-10-15T06:46:09.521Z,21.51
2022-10-15T06:51:01.761Z,21.57
2022-10-15T06:55:54.312Z,21.5
2022-10-15T07:00:46.935Z,21.53
2022-10-15T07:05:40.013Z,21.6
2022-10-15T07:10:32.696Z,21.53
2022-10-15T07:15:25.032Z,21.55
2022-10-15T07:20:20.194Z,21.6
2022-10-15T07:25:10.791Z,21.73
2022-10-15T07:30:03.627Z,21.65
2022-10-15T07:34:56.465Z,21.67
2022-10-15T07:39:48.844Z,21.57
2022-10-15T07:44:41.536Z,21.67
2022-10-15T07:49:34.227Z,21.76
2022-10-15T07:54:26.520Z,21.66
2022-10-15T07:59:18.980Z,21.67
2022-10-15T08:04:11.399Z,21.72
2022-10-15T08:09:03.744Z,21.83
2022-10-15T08:13:56.091Z,21.74
2022-10-15T08:18:48.106Z,21.7
2022-10-15T08:23:40.581Z,21.64
2022-10-15T08:28:33.149Z,21.63
2022-10-15T08:33:25.808Z,21.62
2022-10-15T08:38:19.704Z,21.59
2022-10-15T08:43:10.914Z,21.7
2022-10-15T08:48:03.507Z,21.56
2022-10-15T08:52:55.902Z,21.54
2022-10-15T08:57:48.281Z,21.53
2022-10-15T09:02:41.100Z,21.53
2022-10-15T09:07:33.237Z,21.5
2022-10-15T09:12:25.343Z,21.51
2022-10-15T09:17:17.886Z,21.42
2022-10-15T09:22:10.350Z,21.43
2022-10-15T09:27:02.782Z,21.34
2022-10-15T09:31:55.404Z,21.3
2022-10-15T09:36:48.043Z,21.3
2022-10-15T09:41:40.316Z,21.29
2022-10-15T09:46:32.660Z,21.25
2022-10-15T09:51:25.114Z,21.28
2022-10-15T09:56:17.251Z,21.29
2022-10-15T10:01:09.883Z,21.24
2022-10-15T10:06:02.349Z,21.24
2022-10-15T10:10:54.741Z,21.22
2022-10-15T10:15:47.671Z,21.2
2022-10-15T10:20:40.280Z,21.22
2022-10-15T10:25:32.743Z,21.19
2022-10-15T10:30:24.800Z,21.17
2022-10-15T10:35:17.315Z,21.16
2022-10-15T10:40:09.783Z,21.12
2022-10-15T10:45:02.158Z,21.16
2022-10-15T10:49:54.092Z,21.16
2022-10-15T10:54:46.655Z,21.14
2022-10-15T10:59:39.267Z,21.15
2022-10-15T11:04:31.487Z,21.16
2022-10-15T11:14:16.304Z,21.19
2022-10-15T11:24:01.467Z,21.26
2022-10-15T11:28:54.145Z,21.26
2022-10-15T11:33:46.333Z,21.3
2022-10-15T11:38:38.762Z,21.28
2022-10-15T11:43:31.171Z,21.27
2022-10-15T11:48:23.516Z,21.28
2022-10-15T11:53:16.125Z,21.27
2022-10-15T11:58:08.567Z,21.29
2022-10-15T12:03:00.892Z,21.31
2022-10-15T12:07:53.272Z,21.34
2022-10-15T12:12:45.603Z,21.33
2022-10-15T12:17:38.145Z,21.37
2022-10-15T12:22:32.710Z,21.37
2022-10-15T12:27:23.456Z,21.39
2022-10-15T12:32:15.645Z,21.41
2022-10-15T12:37:08.291Z,21.42
2022-10-15T12:42:00.763Z,21.48
2022-10-15T12:46:53.325Z,21.42
2022-10-15T12:51:46.135Z,21.44
2022-10-15T12:56:38.669Z,21.45
2022-10-15T13:01:30.970Z,21.45
2022-10-15T13:06:23.098Z,21.44
2022-10-15T13:11:15.511Z,21.49
2022-10-15T13:16:07.793Z,21.72
2022-10-15T13:25:52.768Z,21.99
2022-10-15T13:30:45.273Z,22.11
2022-10-15T13:35:37.732Z,22.2
2022-10-15T13:40:30.381Z,22.2
2022-10-15T13:45:22.946Z,22.25
2022-10-15T13:50:15.535Z,22.24
2022-10-15T13:55:08.003Z,22.25
2022-10-15T14:00:00.496Z,22.28
2022-10-15T14:04:53.153Z,22.42
2022-10-15T14:09:45.857Z,22.42
2022-10-15T14:14:38.572Z,22.48
2022-10-15T14:19:30.889Z,22.54
2022-10-15T14:24:22.842Z,22.37
2022-10-15T14:29:15.268Z,22.38
2022-10-15T14:34:07.849Z,22.31
2022-10-15T14:39:00.375Z,22.32
2022-10-15T14:43:53.272Z,22.3
2022-10-15T14:48:45.310Z,22.23
2022-10-15T14:53:37.941Z,22.17
2022-10-15T14:58:30.315Z,22.19
2022-10-15T15:03:25.883Z,22.18
2022-10-15T15:08:17.048Z,22.13
2022-10-15T15:13:09.557Z,22.1
2022-10-15T15:18:01.914Z,22.08
2022-10-15T15:22:54.449Z,22.1
2022-10-15T15:27:46.839Z,22.05
2022-10-15T15:32:39.323Z,22.03
2022-10-15T15:37:31.969Z,21.98
2022-10-15T15:42:24.545Z,21.98
2022-10-15T15:47:16.579Z,21.98
2022-10-15T15:52:08.933Z,21.94
2022-10-15T15:57:01.527Z,21.91
2022-10-15T16:01:53.991Z,21.9
2022-10-15T16:06:46.495Z,21.88
2022-10-15T16:11:38.804Z,21.86
2022-10-15T16:16:31.362Z,21.87
2022-10-15T16:21:23.785Z,21.81
2022-10-15T16:26:16.829Z,21.84
2022-10-15T16:31:09.301Z,21.8
2022-10-15T16:36:02.128Z,21.76
2022-10-15T16:40:54.524Z,21.72
2022-10-15T16:45:47.152Z,21.72
2022-10-15T16:50:39.559Z,21.67
2022-10-15T16:55:32.146Z,21.7
2022-10-15T17:00:24.505Z,21.67
2022-10-15T17:10:10.782Z,21.66
2022-10-15T17:19:54.409Z,21.63
2022-10-15T17:24:46.687Z,21.61
2022-10-15T17:29:38.837Z,21.6
2022-10-15T17:34:31.484Z,21.59
2022-10-15T17:39:24.048Z,21.61
2022-10-15T17:44:16.543Z,21.57
2022-10-15T17:49:09.135Z,21.57
2022-10-15T17:54:01.601Z,21.55
2022-10-15T17:58:54.231Z,21.58
2022-10-15T18:03:50.707Z,21.54
2022-10-15T18:08:42.648Z,21.55
2022-10-15T18:13:34.725Z,21.55
2022-10-15T18:18:27.090Z,21.54
2022-10-15T18:23:19.762Z,21.53
2022-10-15T18:28:12.136Z,21.54
2022-10-15T18:33:04.668Z,21.55
2022-10-15T18:37:57.226Z,21.54
2022-10-15T18:42:49.634Z,21.52
2022-10-15T18:47:42.153Z,21.54
2022-10-15T18:52:39.661Z,21.53
2022-10-15T18:57:27.192Z,21.52
2022-10-15T19:02:19.816Z,21.51
2022-10-15T19:07:11.965Z,21.5
2022-10-15T19:12:04.540Z,21.5
2022-10-15T19:16:57.108Z,21.5
2022-10-15T19:21:49.549Z,21.51
2022-10-15T19:26:42.209Z,21.54
2022-10-15T19:31:34.649Z,21.52
2022-10-15T19:36:27.138Z,21.53
2022-10-15T19:41:19.966Z,21.52
2022-10-15T19:46:12.381Z,21.52
2022-10-15T19:51:04.802Z,21.52
2022-10-15T19:55:57.226Z,21.52
2022-10-15T20:00:49.812Z,21.52
2022-10-15T20:05:42.246Z,21.5
2022-10-15T20:10:34.982Z,21.5
2022-10-15T20:15:27.472Z,21.51
2022-10-15T20:20:19.933Z,21.51
2022-10-15T20:25:12.638Z,21.58
2022-10-15T20:30:05.083Z,21.56
2022-10-15T20:34:57.562Z,21.52
2022-10-15T20:39:49.931Z,21.52
2022-10-15T20:44:42.380Z,21.52
2022-10-15T20:49:34.875Z,21.48
2022-10-15T20:54:27.364Z,21.48
2022-10-15T20:59:19.746Z,21.49
2022-10-15T21:04:13.537Z,21.47
2022-10-15T21:09:05.983Z,21.45
2022-10-15T21:13:58.464Z,21.45
2022-10-15T21:18:50.853Z,21.44
2022-10-15T21:23:43.298Z,21.43
2022-10-15T21:28:35.737Z,21.41
2022-10-15T21:33:28.227Z,21.41
2022-10-15T21:38:20.726Z,21.39
2022-10-15T21:43:13.109Z,21.36
2022-10-15T21:48:05.462Z,21.36
2022-10-15T21:52:58.136Z,21.36
2022-10-15T21:57:50.585Z,21.35
2022-10-15T22:02:43.040Z,21.34
2022-10-15T22:07:37.190Z,21.33
2022-10-15T22:12:27.841Z,21.3
2022-10-15T22:17:20.291Z,21.3
2022-10-15T22:22:12.778Z,21.31
2022-10-15T22:27:05.516Z,21.3
2022-10-15T22:31:58.014Z,21.29
2022-10-15T22:36:50.480Z,21.28
2022-10-15T22:41:42.809Z,21.28
2022-10-15T22:46:35.499Z,21.25
2022-10-15T22:51:28.094Z,21.26
2022-10-15T22:56:20.495Z,21.25
2022-10-15T23:01:12.989Z,21.24
2022-10-15T23:06:05.309Z,21.23
2022-10-15T23:15:50.327Z,21.23
2022-10-15T23:20:42.822Z,21.22
2022-10-15T23:25:35.139Z,21.23
2022-10-15T23:30:27.536Z,21.22
2022-10-15T23:35:19.907Z,21.22
2022-10-15T23:40:12.468Z,21.19
2022-10-15T23:45:05.012Z,21.22
2022-10-15T23:49:57.447Z,21.21
2022-10-15T23:54:49.988Z,21.2
2022-10-15T23:59:42.502Z,21.19
